Time;durP1;ratioP1;P1;durP2;ratioP2;P2;SDS_P1;SDS_P2;PMS_P1;PMS_P2;Temp;Humidity;BMP_temperature;BMP_pressure;BME280_temperature;BME280_humidity;BME280_pressure;Samples;Min_cycle;Max_cycle;Signal;HPM_P1;HPM_P2
2021/12/31 00:00:30;;;;;;;1.35;0.40;;;11.50;99.90;;;;;;4982637;28;20532;-90
2021/12/31 00:02:59;;;;;;;0.70;0.25;;;11.60;99.90;;;;;;4981455;28;20547;-91
2021/12/31 00:10:59;;;;;;;1.52;0.40;;;11.60;99.90;;;;;;3910630;23;20058;-90
2021/12/31 00:14:02;;;;;;;0.57;0.20;;;11.60;99.90;;;;;;4985432;28;20054;-90
2021/12/31 00:16:38;;;;;;;1.27;0.40;;;11.60;99.90;;;;;;4960042;28;20031;-90
2021/12/31 00:19:04;;;;;;;0.40;0.20;;;11.60;99.90;;;;;;4965186;28;20035;-91
2021/12/31 00:21:36;;;;;;;0.73;0.30;;;11.60;99.90;;;;;;4950217;29;20039;-91
2021/12/31 00:24:14;;;;;;;2.67;0.30;;;11.60;99.90;;;;;;4966117;29;20023;-91
2021/12/31 00:29:43;;;;;;;0.63;0.40;;;11.50;99.90;;;;;;4966375;28;20034;-90
2021/12/31 00:32:19;;;;;;;0.98;0.30;;;11.50;99.90;;;;;;4949184;29;20051;-91
2021/12/31 00:35:54;;;;;;;1.30;0.30;;;11.40;99.90;;;;;;4966693;29;20027;-90
2021/12/31 00:38:52;;;;;;;1.05;0.32;;;11.50;99.90;;;;;;4946204;29;20063;-90
2021/12/31 00:41:24;;;;;;;0.88;0.25;;;11.40;99.90;;;;;;4964218;29;20036;-91
2021/12/31 00:43:56;;;;;;;2.13;0.30;;;11.40;99.90;;;;;;4950940;29;20107;-91
2021/12/31 00:47:20;;;;;;;0.68;0.20;;;11.30;99.90;;;;;;4949130;28;20046;-90
2021/12/31 00:50:07;;;;;;;1.27;0.30;;;11.30;99.90;;;;;;4965099;28;20043;-90
2021/12/31 00:52:47;;;;;;;3.15;0.77;;;11.30;99.90;;;;;;4945517;29;20484;-90
2021/12/31 00:55:44;;;;;;;0.70;0.30;;;11.30;99.90;;;;;;4948946;28;20031;-90
2021/12/31 00:58:31;;;;;;;0.93;0.30;;;11.30;99.90;;;;;;4947689;29;20034;-91
2021/12/31 01:01:37;;;;;;;1.35;0.40;;;11.30;99.90;;;;;;4950131;29;20031;-91
2021/12/31 01:04:22;;;;;;;2.70;0.30;;;11.20;99.90;;;;;;4949031;29;20042;-91
2021/12/31 01:07:14;;;;;;;1.35;0.30;;;11.20;99.90;;;;;;4963164;29;20264;-92
2021/12/31 01:10:01;;;;;;;0.90;0.43;;;11.10;99.90;;;;;;4964058;29;20136;-90
2021/12/31 01:15:59;;;;;;;0.65;0.30;;;11.00;99.90;;;;;;4945152;28;20042;-90
2021/12/31 01:21:35;;;;;;;1.33;0.20;;;11.00;99.90;;;;;;4952684;28;20023;-90
2021/12/31 01:27:39;;;;;;;1.10;0.32;;;10.90;99.90;;;;;;4963460;28;20067;-90
2021/12/31 01:30:13;;;;;;;1.02;0.40;;;10.80;99.90;;;;;;4958847;29;20058;-90
2021/12/31 01:32:55;;;;;;;0.77;0.20;;;10.80;99.90;;;;;;4947195;29;20503;-90
2021/12/31 01:35:35;;;;;;;0.40;0.20;;;10.70;99.90;;;;;;4958056;28;20066;-90
2021/12/31 01:38:34;;;;;;;1.10;0.40;;;10.70;99.90;;;;;;4948306;28;20031;-90
2021/12/31 01:41:19;;;;;;;1.42;0.40;;;10.50;99.90;;;;;;4947442;29;20055;-90
2021/12/31 01:47:56;;;;;;;0.47;0.20;;;10.50;99.90;;;;;;4954016;29;20046;-91
2021/12/31 01:50:43;;;;;;;0.65;0.20;;;10.40;99.90;;;;;;4949174;29;20085;-91
2021/12/31 01:53:42;;;;;;;;;;;;;;;;;;;;;
2021/12/31 01:56:08;;;;;;;0.55;0.30;;;10.30;99.90;;;;;;4966259;28;20108;-91
2021/12/31 01:58:38;;;;;;;0.60;0.30;;;10.30;99.90;;;;;;4949677;29;20063;-91
2021/12/31 02:03:56;;;;;;;1.03;0.13;;;10.30;99.90;;;;;;4951784;29;20122;-91
2021/12/31 02:07:08;;;;;;;0.67;0.23;;;10.10;99.90;;;;;;4949066;29;20660;-90
2021/12/31 02:10:07;;;;;;;2.53;0.50;;;10.10;99.90;;;;;;4853101;29;20101;-90
2021/12/31 02:13:14;;;;;;;0.83;0.30;;;10.10;99.90;;;;;;4842840;29;20045;-91
2021/12/31 02:15:58;;;;;;;0.87;0.30;;;10.10;99.90;;;;;;4951712;28;20491;-90
2021/12/31 02:18:45;;;;;;;2.60;0.30;;;10.10;99.90;;;;;;4942809;29;20103;-90
2021/12/31 02:21:28;;;;;;;1.48;0.30;;;10.10;99.90;;;;;;4946841;29;20122;-90
2021/12/31 02:24:24;;;;;;;1.48;0.40;;;10.10;99.90;;;;;;4962956;29;20027;-90
2021/12/31 02:27:04;;;;;;;2.57;0.27;;;10.10;99.90;;;;;;4947455;29;20432;-89
2021/12/31 02:29:40;;;;;;;1.50;0.30;;;10.10;99.90;;;;;;4962723;29;20047;-90
2021/12/31 02:33:05;;;;;;;0.73;0.30;;;10.10;99.90;;;;;;4947807;29;20043;-90
2021/12/31 02:35:48;;;;;;;0.70;0.30;;;9.90;99.90;;;;;;4957974;28;20031;-90
2021/12/31 02:38:13;;;;;;;0.82;0.30;;;10.00;99.90;;;;;;4963564;29;20062;-90
2021/12/31 02:40:57;;;;;;;1.15;0.30;;;9.90;99.90;;;;;;4965392;29;20023;-91
2021/12/31 02:43:38;;;;;;;0.60;0.27;;;9.80;99.90;;;;;;4964220;28;20491;-90
2021/12/31 02:48:59;;;;;;;0.60;0.30;;;9.70;99.90;;;;;;4999401;28;20031;-91
2021/12/31 02:51:53;;;;;;;1.87;0.40;;;9.70;99.90;;;;;;4994124;28;20033;-92
2021/12/31 02:54:20;;;;;;;1.17;0.30;;;9.60;99.90;;;;;;5010088;28;20143;-91
2021/12/31 02:56:49;;;;;;;1.50;0.37;;;9.60;99.90;;;;;;5013245;28;20097;-91
2021/12/31 02:59:15;;;;;;;0.70;0.30;;;9.60;99.90;;;;;;5019413;28;20141;-91
2021/12/31 03:02:06;;;;;;;;;;;;;;;;;;;;;
2021/12/31 03:05:10;;;;;;;2.30;0.50;;;9.60;99.90;;;;;;5004593;28;20101;-89
2021/12/31 03:07:53;;;;;;;1.80;0.40;;;9.50;99.90;;;;;;5005749;28;20049;-90
2021/12/31 03:10:21;;;;;;;2.30;0.30;;;9.60;99.90;;;;;;5000624;28;20031;-91
2021/12/31 03:13:23;;;;;;;;;;;;;;;;;;;;;
2021/12/31 03:15:58;;;;;;;1.80;0.50;;;9.50;99.90;;;;;;5002699;28;20117;-90
2021/12/31 03:18:47;;;;;;;0.73;0.30;;;9.50;99.90;;;;;;5005689;28;20049;-90
2021/12/31 03:21:51;;;;;;;1.10;0.40;;;9.40;99.90;;;;;;5002009;28;20057;-90
2021/12/31 03:24:17;;;;;;;2.03;0.47;;;9.40;99.90;;;;;;4995643;28;20077;-90
2021/12/31 03:29:31;;;;;;;0.70;0.30;;;9.40;99.90;;;;;;4997626;23;20067;-90
2021/12/31 03:32:10;;;;;;;1.65;0.38;;;9.30;99.90;;;;;;4967690;28;20046;-90
2021/12/31 03:37:41;;;;;;;1.23;0.40;;;9.30;99.90;;;;;;4973462;23;20071;-87
2021/12/31 03:40:16;;;;;;;1.83;0.40;;;9.30;99.90;;;;;;4955733;29;20027;-86
2021/12/31 03:43:36;;;;;;;1.03;0.30;;;9.30;99.90;;;;;;4938998;29;20118;-87
2021/12/31 03:46:19;;;;;;;1.27;0.40;;;9.30;99.90;;;;;;4952735;28;20032;-87
2021/12/31 03:49:44;;;;;;;1.43;0.40;;;9.30;99.90;;;;;;4935107;29;20436;-87
2021/12/31 03:52:46;;;;;;;0.63;0.30;;;9.30;99.90;;;;;;4909410;29;20032;-87
2021/12/31 03:55:46;;;;;;;0.93;0.20;;;9.30;99.90;;;;;;4918348;29;20028;-87
2021/12/31 03:58:40;;;;;;;0.77;0.20;;;9.30;99.90;;;;;;4891477;29;20094;-87
2021/12/31 04:01:22;;;;;;;;;;;;;;;;;;;;;
2021/12/31 04:10:23;;;;;;;1.20;0.20;;;9.10;99.90;;;;;;4933016;29;20096;-87
2021/12/31 04:17:14;;;;;;;;;;;;;;;;;;;;;
2021/12/31 04:26:39;;;;;;;1.97;0.60;;;9.00;99.90;;;;;;4938254;28;20027;-87
2021/12/31 04:30:15;;;;;;;;;;;;;;;;;;;;;
2021/12/31 04:33:45;;;;;;;2.30;0.60;;;8.90;99.90;;;;;;4877458;29;20039;-87
2021/12/31 04:37:11;;;;;;;1.80;0.80;;;8.80;99.90;;;;;;4952534;28;20036;-87
2021/12/31 04:40:01;;;;;;;1.03;0.43;;;8.70;99.90;;;;;;4920982;29;20520;-88
2021/12/31 04:43:30;;;;;;;1.40;0.50;;;8.70;99.90;;;;;;4937925;29;20074;-87
2021/12/31 04:47:15;;;;;;;0.63;0.30;;;8.60;99.90;;;;;;4926980;29;20090;-87
2021/12/31 04:50:49;;;;;;;1.83;0.40;;;8.50;99.90;;;;;;4873434;29;20108;-87
2021/12/31 04:54:16;;;;;;;1.10;0.33;;;8.50;99.90;;;;;;4883276;29;20081;-87
2021/12/31 04:57:03;;;;;;;;;;;;;;;;;;;;;
2021/12/31 04:59:57;;;;;;;1.20;0.40;;;8.40;99.90;;;;;;4854920;29;20025;-86
2021/12/31 05:02:48;;;;;;;1.50;0.53;;;8.30;99.90;;;;;;4872994;29;20041;-86
2021/12/31 05:06:12;;;;;;;1.63;0.60;;;8.30;99.90;;;;;;4856504;29;20045;-87
2021/12/31 05:16:52;;;;;;;1.93;0.50;;;8.20;99.90;;;;;;4835383;29;20170;-86
2021/12/31 05:23:40;;;;;;;3.47;0.60;;;8.20;99.90;;;;;;4879171;29;20032;-87
2021/12/31 05:26:37;;;;;;;1.27;0.57;;;8.20;99.90;;;;;;4901065;29;20116;-87
2021/12/31 05:29:05;;;;;;;3.40;0.60;;;8.20;99.90;;;;;;4868388;29;20025;-87
2021/12/31 05:31:48;;;;;;;1.40;0.50;;;8.20;99.90;;;;;;4943461;29;20039;-87
2021/12/31 05:34:13;;;;;;;;;;;8.10;99.90;;;;;;4934519;29;20027;-87
2021/12/31 05:37:05;;;;;;;2.87;0.50;;;8.10;99.90;;;;;;4937156;29;19978;-86
2021/12/31 05:40:07;;;;;;;2.63;0.50;;;8.00;99.90;;;;;;4948605;29;20059;-86
2021/12/31 05:42:45;;;;;;;2.27;0.60;;;8.00;99.90;;;;;;4936527;29;20042;-87
2021/12/31 05:45:20;;;;;;;1.17;0.40;;;8.00;99.90;;;;;;4936217;28;20135;-87
2021/12/31 05:48:00;;;;;;;1.43;0.40;;;8.00;99.90;;;;;;4935867;29;20129;-87
2021/12/31 05:50:28;;;;;;;1.20;0.50;;;7.80;99.90;;;;;;4936604;29;20023;-87
2021/12/31 05:53:22;;;;;;;1.50;0.50;;;8.10;99.90;;;;;;4936461;29;20024;-87
2021/12/31 05:55:54;;;;;;;1.53;0.50;;;7.90;99.90;;;;;;4946267;29;20028;-86
2021/12/31 05:58:28;;;;;;;1.20;0.40;;;7.90;99.90;;;;;;4933344;29;20035;-86
2021/12/31 06:01:10;;;;;;;2.73;0.67;;;7.80;99.90;;;;;;4932077;28;20027;-86
2021/12/31 06:03:56;;;;;;;2.78;0.73;;;7.90;99.90;;;;;;4953344;28;20027;-86
2021/12/31 06:07:16;;;;;;;2.43;0.60;;;7.90;99.90;;;;;;4943418;28;20516;-86
2021/12/31 06:10:27;;;;;;;1.17;0.40;;;7.90;99.90;;;;;;4926563;29;20031;-86
2021/12/31 06:13:34;;;;;;;1.23;0.47;;;7.90;99.90;;;;;;4948300;28;20031;-87
2021/12/31 06:16:11;;;;;;;1.00;0.40;;;7.90;99.90;;;;;;4922161;29;20063;-87
2021/12/31 06:18:53;;;;;;;1.97;0.37;;;7.90;99.90;;;;;;4949828;29;20062;-86
2021/12/31 06:21:28;;;;;;;1.70;0.60;;;7.90;99.90;;;;;;4935767;29;20027;-86
2021/12/31 06:24:02;;;;;;;2.10;0.53;;;7.90;99.90;;;;;;4951767;29;20395;-86
2021/12/31 06:27:00;;;;;;;1.17;0.30;;;7.90;99.90;;;;;;4961946;23;20059;-87
2021/12/31 06:29:32;;;;;;;2.37;0.40;;;7.90;99.90;;;;;;4978174;28;20030;-87
2021/12/31 06:32:07;;;;;;;0.73;0.40;;;7.90;99.90;;;;;;4970009;28;20049;-87
2021/12/31 06:34:43;;;;;;;1.93;0.40;;;7.80;99.90;;;;;;4972014;28;20097;-87
2021/12/31 06:37:09;;;;;;;1.27;0.40;;;7.80;99.90;;;;;;4970951;28;20030;-86
2021/12/31 06:39:46;;;;;;;1.33;0.50;;;7.80;99.90;;;;;;4971581;28;20042;-87
2021/12/31 06:42:20;;;;;;;1.53;0.50;;;7.80;99.90;;;;;;4986134;28;20497;-87
2021/12/31 06:44:59;;;;;;;2.07;0.47;;;7.70;99.90;;;;;;4986505;28;20027;-86
2021/12/31 06:47:31;;;;;;;1.53;0.53;;;7.80;99.90;;;;;;4964012;28;20062;-87
2021/12/31 06:49:59;;;;;;;1.93;0.50;;;7.80;99.90;;;;;;4986683;28;20057;-87
2021/12/31 06:52:39;;;;;;;2.83;0.70;;;7.80;99.90;;;;;;4986915;28;20027;-87
2021/12/31 06:55:16;;;;;;;1.23;0.40;;;7.80;99.90;;;;;;4971845;28;20045;-86
2021/12/31 06:57:51;;;;;;;1.07;0.40;;;7.80;99.90;;;;;;4985863;28;20144;-86
2021/12/31 07:00:24;;;;;;;1.00;0.40;;;8.00;99.90;;;;;;4989755;28;20055;-86
2021/12/31 07:03:24;;;;;;;3.30;0.60;;;7.80;99.90;;;;;;5012958;28;20027;-86
2021/12/31 07:05:54;;;;;;;3.30;0.60;;;7.90;99.90;;;;;;5007705;28;20023;-86
2021/12/31 07:08:39;;;;;;;2.37;0.50;;;7.80;99.90;;;;;;4997066;28;20031;-86
2021/12/31 07:11:28;;;;;;;1.20;0.50;;;7.80;99.90;;;;;;4993526;28;20032;-86
2021/12/31 07:13:56;;;;;;;1.93;0.70;;;7.80;99.90;;;;;;4975833;28;20030;-86
2021/12/31 07:16:27;;;;;;;2.00;0.67;;;7.70;99.90;;;;;;4976187;28;20032;-86
2021/12/31 07:19:05;;;;;;;1.73;0.50;;;7.70;99.90;;;;;;4987569;28;20545;-86
2021/12/31 07:21:38;;;;;;;1.20;0.50;;;7.70;99.90;;;;;;4990745;28;20031;-86
2021/12/31 07:24:27;;;;;;;2.03;0.57;;;7.70;99.90;;;;;;4975188;28;20377;-86
2021/12/31 07:27:03;;;;;;;2.37;0.53;;;7.70;99.90;;;;;;4968118;28;20063;-87
2021/12/31 07:29:30;;;;;;;1.83;0.60;;;7.60;99.90;;;;;;4987491;28;20488;-86
2021/12/31 07:31:56;;;;;;;1.43;0.70;;;7.70;99.90;;;;;;4989952;28;20078;-86
2021/12/31 07:34:22;;;;;;;2.20;0.73;;;7.70;99.90;;;;;;4975783;28;20066;-86
2021/12/31 07:36:50;;;;;;;2.33;0.70;;;7.70;99.90;;;;;;4974263;28;20403;-87
2021/12/31 07:39:20;;;;;;;1.33;0.50;;;7.80;99.90;;;;;;4989717;28;20154;-87
2021/12/31 07:41:48;;;;;;;3.30;0.70;;;7.70;99.90;;;;;;4990219;28;20091;-87
2021/12/31 07:44:15;;;;;;;3.30;0.97;;;7.80;99.90;;;;;;4987233;28;21056;-87
2021/12/31 07:46:49;;;;;;;2.07;0.80;;;7.70;99.90;;;;;;4988482;28;20125;-87
2021/12/31 07:49:20;;;;;;;1.43;0.60;;;7.80;99.90;;;;;;4975147;28;20027;-86
2021/12/31 07:51:45;;;;;;;2.13;0.60;;;7.80;99.90;;;;;;4973549;28;20031;-86
2021/12/31 07:54:13;;;;;;;2.10;0.47;;;7.80;99.90;;;;;;4974493;28;20030;-86
2021/12/31 07:56:47;;;;;;;2.67;0.67;;;7.80;99.90;;;;;;4968883;28;20031;-87
2021/12/31 07:59:16;;;;;;;2.03;0.70;;;7.80;99.90;;;;;;4953086;28;20038;-86
2021/12/31 08:01:50;;;;;;;2.77;0.90;;;7.90;99.90;;;;;;4965035;28;20451;-86
2021/12/31 08:04:16;;;;;;;2.37;1.00;;;7.90;99.90;;;;;;4969076;28;20566;-86
2021/12/31 08:06:50;;;;;;;3.00;1.00;;;7.90;99.90;;;;;;4970885;28;20102;-87
2021/12/31 08:09:21;;;;;;;2.73;0.90;;;7.90;99.90;;;;;;4989082;28;20074;-86
2021/12/31 08:11:46;;;;;;;2.53;1.00;;;7.90;99.90;;;;;;4986735;28;20271;-86
2021/12/31 08:14:12;;;;;;;2.53;1.00;;;7.90;99.90;;;;;;4973402;28;20394;-86
2021/12/31 08:16:37;;;;;;;2.23;0.70;;;8.00;99.90;;;;;;4987392;28;20038;-85
2021/12/31 08:19:03;;;;;;;2.30;0.90;;;8.00;99.90;;;;;;4988176;28;20106;-86
2021/12/31 08:21:30;;;;;;;3.90;1.20;;;8.00;99.90;;;;;;4969956;28;20062;-86
2021/12/31 08:23:55;;;;;;;3.37;1.70;;;8.10;99.90;;;;;;4984963;28;20063;-86
2021/12/31 08:26:21;;;;;;;3.50;1.10;;;8.10;99.90;;;;;;4986707;28;20113;-86
2021/12/31 08:28:47;;;;;;;5.53;1.20;;;8.10;99.90;;;;;;4969072;28;20057;-86
2021/12/31 08:31:12;;;;;;;2.60;1.00;;;8.20;99.90;;;;;;4971152;28;20402;-86
2021/12/31 08:33:39;;;;;;;3.60;1.20;;;8.20;99.90;;;;;;4986523;28;20435;-86
2021/12/31 08:36:07;;;;;;;2.57;1.07;;;8.20;99.90;;;;;;4985770;28;20023;-86
2021/12/31 08:38:33;;;;;;;2.47;0.97;;;8.20;99.90;;;;;;4969148;28;20038;-86
2021/12/31 08:41:01;;;;;;;3.27;1.10;;;8.30;99.90;;;;;;4971849;28;20037;-86
2021/12/31 08:43:27;;;;;;;3.83;1.20;;;8.30;99.90;;;;;;4986239;28;20047;-86
2021/12/31 08:45:53;;;;;;;2.90;0.90;;;8.40;99.90;;;;;;4985446;28;20256;-87
2021/12/31 08:48:19;;;;;;;1.63;0.70;;;8.50;99.90;;;;;;4956743;28;20122;-87
2021/12/31 08:50:45;;;;;;;2.20;0.97;;;8.60;99.90;;;;;;4986261;28;20058;-86
2021/12/31 08:53:12;;;;;;;2.73;1.10;;;8.70;99.90;;;;;;4986978;28;20069;-86
2021/12/31 08:55:37;;;;;;;1.60;0.90;;;8.80;99.90;;;;;;4970813;28;20487;-87
2021/12/31 08:58:03;;;;;;;2.97;1.10;;;8.80;99.90;;;;;;4970067;28;20081;-86
2021/12/31 09:00:29;;;;;;;2.93;1.20;;;8.80;99.90;;;;;;4985672;28;20491;-86
2021/12/31 09:02:54;;;;;;;3.80;1.60;;;8.80;99.90;;;;;;4988235;28;20037;-86
2021/12/31 09:05:22;;;;;;;5.17;1.40;;;8.80;99.90;;;;;;4970264;28;20213;-86
2021/12/31 09:07:48;;;;;;;2.23;1.00;;;8.80;99.90;;;;;;4969747;28;20022;-86
2021/12/31 09:10:19;;;;;;;3.13;1.50;;;8.70;99.90;;;;;;4969021;28;20515;-86
2021/12/31 09:12:50;;;;;;;2.73;1.33;;;8.70;99.90;;;;;;4980629;28;20027;-87
2021/12/31 09:15:16;;;;;;;3.73;0.90;;;8.70;99.90;;;;;;4968423;28;20023;-86
2021/12/31 09:17:43;;;;;;;3.37;1.43;;;8.80;99.90;;;;;;4985972;28;20041;-86
2021/12/31 09:20:10;;;;;;;2.30;0.90;;;8.80;99.90;;;;;;4971226;28;20045;-87
2021/12/31 09:22:39;;;;;;;3.57;0.90;;;8.80;99.90;;;;;;4972814;28;20046;-87
2021/12/31 09:25:05;;;;;;;2.20;0.80;;;8.90;99.90;;;;;;4973206;28;20483;-87
2021/12/31 09:27:31;;;;;;;1.67;0.70;;;9.00;99.90;;;;;;4988331;28;20030;-86
2021/12/31 09:29:56;;;;;;;1.63;0.60;;;9.10;99.90;;;;;;4957320;28;20436;-85
2021/12/31 09:32:22;;;;;;;1.27;0.50;;;9.20;99.90;;;;;;4971106;28;20340;-86
2021/12/31 09:34:48;;;;;;;1.50;0.60;;;9.30;99.90;;;;;;4972366;28;20058;-86
2021/12/31 09:37:38;;;;;;;1.43;0.43;;;9.40;99.90;;;;;;5127491;23;20519;-88
2021/12/31 09:40:07;;;;;;;1.63;0.50;;;9.40;99.90;;;;;;5002252;28;20030;-89
2021/12/31 09:42:36;;;;;;;1.77;0.97;;;9.50;99.90;;;;;;4984691;28;20027;-90
2021/12/31 09:45:06;;;;;;;1.20;0.57;;;9.50;99.90;;;;;;5000562;28;20039;-90
2021/12/31 09:47:37;;;;;;;4.37;0.80;;;9.60;99.90;;;;;;4976559;28;20038;-90
2021/12/31 09:50:10;;;;;;;2.17;0.73;;;9.60;99.90;;;;;;4977919;28;20033;-90
2021/12/31 09:52:54;;;;;;;2.77;0.70;;;9.70;99.90;;;;;;4981993;28;20018;-89
2021/12/31 09:56:13;;;;;;;3.97;1.00;;;9.70;99.90;;;;;;4980012;28;20078;-89
2021/12/31 09:58:42;;;;;;;2.13;0.90;;;9.80;99.90;;;;;;4979276;28;20103;-89
2021/12/31 10:05:47;;;;;;;1.53;0.77;;;10.00;99.90;;;;;;4964461;28;20028;-89
2021/12/31 10:11:39;;;;;;;4.00;0.70;;;10.20;99.90;;;;;;4914812;29;20024;-89
2021/12/31 10:14:40;;;;;;;2.97;1.03;;;10.30;99.90;;;;;;4979833;28;20045;-88
2021/12/31 10:17:35;;;;;;;2.47;0.80;;;10.40;99.90;;;;;;4976724;28;20067;-90
2021/12/31 10:20:01;;;;;;;2.90;1.20;;;10.50;99.90;;;;;;4963401;28;20034;-90
2021/12/31 10:23:14;;;;;;;2.70;1.00;;;10.50;99.90;;;;;;4965246;28;20043;-89
2021/12/31 10:25:42;;;;;;;2.50;0.90;;;10.70;99.90;;;;;;4983206;28;20039;-90
2021/12/31 10:28:37;;;;;;;3.65;1.15;;;10.80;99.90;;;;;;4978182;28;20023;-86
2021/12/31 10:35:04;;;;;;;;;;;11.00;99.90;;;;;;4966044;28;20031;-90
2021/12/31 10:45:19;;;;;;;3.88;1.20;;;11.30;99.90;;;;;;5424351;23;20054;-88
2021/12/31 10:47:57;;;;;;;3.58;1.38;;;11.30;99.90;;;;;;4987798;28;20027;-90
2021/12/31 10:50:35;;;;;;;2.92;1.08;;;11.30;99.90;;;;;;4968531;28;20092;-90
2021/12/31 10:55:39;;;;;;;2.80;1.00;;;11.30;99.90;;;;;;4967378;28;20012;-91
2021/12/31 10:58:10;;;;;;;2.72;1.20;;;11.30;99.90;;;;;;4965547;28;20027;-90
2021/12/31 11:00:50;;;;;;;3.03;1.20;;;11.30;99.90;;;;;;4967026;28;20542;-90
2021/12/31 11:03:29;;;;;;;2.05;0.95;;;11.40;99.90;;;;;;4968632;28;20015;-91
2021/12/31 11:08:28;;;;;;;3.00;1.30;;;11.40;99.90;;;;;;5007216;23;20047;-89
2021/12/31 11:14:27;;;;;;;2.45;0.90;;;11.60;99.90;;;;;;4974310;28;20031;-90
2021/12/31 11:17:03;;;;;;;;;;;;;;;;;;;;;
2021/12/31 11:19:43;;;;;;;3.15;1.20;;;11.70;99.90;;;;;;4969699;29;20066;-89
2021/12/31 11:22:30;;;;;;;2.85;0.93;;;11.70;99.90;;;;;;4950677;29;20033;-90
2021/12/31 11:25:17;;;;;;;2.67;0.95;;;11.80;99.90;;;;;;4969581;29;20036;-89
2021/12/31 11:27:51;;;;;;;2.03;0.85;;;11.70;99.90;;;;;;4968412;28;20027;-89
2021/12/31 11:30:43;;;;;;;1.85;0.82;;;11.90;99.90;;;;;;4952590;29;20023;-89
2021/12/31 11:33:31;;;;;;;1.90;0.90;;;11.90;99.90;;;;;;4940284;29;20042;-89
2021/12/31 11:38:22;;;;;;;2.22;1.00;;;12.00;99.90;;;;;;5002769;23;20059;-90
2021/12/31 11:41:13;;;;;;;3.50;0.82;;;12.00;99.90;;;;;;4976115;28;20121;-90
2021/12/31 11:43:42;;;;;;;2.70;1.08;;;12.00;99.90;;;;;;4959822;28;20026;-90
2021/12/31 11:46:11;;;;;;;2.38;0.90;;;12.10;99.90;;;;;;4974875;28;20039;-90
2021/12/31 11:49:31;;;;;;;2.20;1.00;;;12.10;99.90;;;;;;4975086;28;20033;-90
2021/12/31 11:52:27;;;;;;;3.42;1.25;;;12.10;99.90;;;;;;4964127;28;20035;-90
2021/12/31 11:55:22;;;;;;;2.80;1.00;;;12.20;99.90;;;;;;4974039;28;20133;-90
2021/12/31 11:57:52;;;;;;;1.80;0.77;;;12.10;99.90;;;;;;4953014;28;20023;-91
2021/12/31 12:00:39;;;;;;;2.08;0.70;;;12.20;99.90;;;;;;4972124;28;20023;-91
2021/12/31 12:03:30;;;;;;;1.20;0.70;;;12.30;99.90;;;;;;4959477;28;20034;-91
2021/12/31 12:05:56;;;;;;;1.47;0.60;;;12.30;99.90;;;;;;4954104;28;20581;-89
2021/12/31 12:08:50;;;;;;;1.42;0.60;;;12.40;99.90;;;;;;4974311;28;20270;-91
2021/12/31 12:15:21;;;;;;;1.40;0.60;;;12.60;99.90;;;;;;4971111;28;20042;-92
2021/12/31 12:18:00;;;;;;;1.35;0.52;;;12.40;99.90;;;;;;4974295;28;20128;-91
2021/12/31 12:20:45;;;;;;;1.25;0.45;;;12.50;99.90;;;;;;4958738;28;20046;-92
2021/12/31 12:24:11;;;;;;;0.90;0.50;;;12.50;99.90;;;;;;4953752;28;20039;-91
2021/12/31 12:27:25;;;;;;;1.35;0.52;;;12.60;99.90;;;;;;4950080;29;20057;-92
2021/12/31 12:30:10;;;;;;;1.25;0.50;;;12.60;99.90;;;;;;4971221;28;20534;-91
2021/12/31 12:32:52;;;;;;;1.88;0.65;;;12.60;99.90;;;;;;4972400;28;20042;-91
2021/12/31 12:35:38;;;;;;;1.33;0.43;;;12.50;99.90;;;;;;4973112;28;20037;-91
2021/12/31 12:38:22;;;;;;;3.95;0.55;;;12.50;99.90;;;;;;4965593;28;20042;-91
2021/12/31 12:40:55;;;;;;;1.10;0.60;;;12.60;99.90;;;;;;4972613;28;20529;-91
2021/12/31 12:43:27;;;;;;;1.60;0.60;;;12.60;99.90;;;;;;4966483;28;20575;-91
2021/12/31 12:51:33;;;;;;;0.98;0.50;;;12.90;99.90;;;;;;4158397;26;20074;-91
2021/12/31 12:54:21;;;;;;;1.27;0.47;;;13.00;99.90;;;;;;4975980;28;20034;-91
2021/12/31 12:57:06;;;;;;;1.00;0.60;;;13.10;99.90;;;;;;4972665;28;20038;-91
2021/12/31 12:59:43;;;;;;;1.33;0.55;;;13.10;99.90;;;;;;4976753;28;20033;-92
2021/12/31 13:02:11;;;;;;;1.75;0.65;;;13.00;99.90;;;;;;4975765;28;20037;-90
2021/12/31 13:04:37;;;;;;;1.52;0.65;;;13.10;99.90;;;;;;4992946;28;20569;-90
2021/12/31 13:07:07;;;;;;;2.22;0.77;;;13.10;99.90;;;;;;4993259;28;20030;-90
2021/12/31 13:09:34;;;;;;;1.52;0.50;;;13.10;99.90;;;;;;4990080;28;20038;-90
2021/12/31 13:12:02;;;;;;;1.23;0.73;;;13.20;99.90;;;;;;4992541;28;20047;-91
2021/12/31 13:14:37;;;;;;;1.15;0.43;;;13.10;99.90;;;;;;4992006;28;20038;-90
2021/12/31 13:17:03;;;;;;;1.30;0.50;;;13.10;99.90;;;;;;4988878;28;20078;-90
2021/12/31 13:19:37;;;;;;;0.98;0.40;;;13.10;99.90;;;;;;4974583;28;20031;-90
2021/12/31 13:22:11;;;;;;;0.80;0.45;;;13.10;99.90;;;;;;4988622;28;20026;-89
2021/12/31 13:24:42;;;;;;;1.15;0.47;;;13.00;99.90;;;;;;4990833;28;20128;-91
2021/12/31 13:27:10;;;;;;;2.38;0.60;;;13.00;99.90;;;;;;4989529;28;20036;-90
2021/12/31 13:29:47;;;;;;;0.73;0.40;;;13.20;99.90;;;;;;4986384;28;20517;-90
2021/12/31 13:32:37;;;;;;;2.10;0.70;;;13.10;99.90;;;;;;4975334;28;20102;-90
2021/12/31 13:35:06;;;;;;;1.38;0.43;;;13.20;99.90;;;;;;4991785;28;20026;-90
2021/12/31 13:38:03;;;;;;;1.00;0.40;;;13.20;99.90;;;;;;4985284;28;20538;-88
2021/12/31 13:40:29;;;;;;;0.98;0.43;;;13.30;99.90;;;;;;4992882;28;20034;-89
2021/12/31 13:43:00;;;;;;;1.45;0.50;;;13.40;99.90;;;;;;4975189;28;20030;-90
2021/12/31 13:45:27;;;;;;;0.98;0.35;;;13.40;99.90;;;;;;4989421;28;20022;-89
2021/12/31 13:48:16;;;;;;;1.10;0.40;;;13.40;99.90;;;;;;4975127;28;20065;-89
2021/12/31 13:50:43;;;;;;;1.45;0.52;;;13.40;99.90;;;;;;4967135;28;20066;-89
2021/12/31 13:53:21;;;;;;;1.38;0.50;;;13.40;99.90;;;;;;4970294;28;20065;-90
2021/12/31 13:55:47;;;;;;;1.63;0.63;;;13.40;99.90;;;;;;4989960;28;20525;-88
2021/12/31 13:58:17;;;;;;;1.55;0.60;;;13.30;99.90;;;;;;4987377;28;20030;-89
2021/12/31 14:00:43;;;;;;;1.00;0.60;;;13.40;99.90;;;;;;4988954;28;20061;-89
2021/12/31 14:03:17;;;;;;;1.20;0.45;;;13.30;99.90;;;;;;4990292;28;20034;-88
2021/12/31 14:06:04;;;;;;;1.10;0.50;;;13.30;99.90;;;;;;4990945;28;20037;-89
2021/12/31 14:11:15;;;;;;;1.83;0.70;;;13.30;99.90;;;;;;4991858;28;20034;-89
2021/12/31 14:13:43;;;;;;;1.00;0.52;;;13.20;99.90;;;;;;4986705;28;20483;-89
2021/12/31 14:16:11;;;;;;;1.40;0.70;;;13.20;99.90;;;;;;4973058;28;20035;-89
2021/12/31 14:18:39;;;;;;;1.10;0.40;;;13.10;99.90;;;;;;4973587;28;20521;-89
2021/12/31 14:21:09;;;;;;;1.13;0.40;;;13.00;99.90;;;;;;4987388;28;20436;-90
2021/12/31 14:23:35;;;;;;;1.70;0.55;;;13.00;99.90;;;;;;4990282;28;20098;-89
2021/12/31 14:26:01;;;;;;;1.17;0.52;;;13.00;99.90;;;;;;4972478;28;20126;-89
2021/12/31 14:28:29;;;;;;;1.10;0.40;;;13.10;99.90;;;;;;4972927;28;20026;-89
2021/12/31 14:31:04;;;;;;;1.50;0.45;;;13.10;99.90;;;;;;4974064;28;20372;-89
2021/12/31 14:33:30;;;;;;;0.98;0.52;;;13.00;99.90;;;;;;4972761;28;20110;-89
2021/12/31 14:35:59;;;;;;;0.90;0.40;;;13.00;99.90;;;;;;4967200;28;20326;-89
2021/12/31 14:38:30;;;;;;;1.25;0.43;;;13.00;99.90;;;;;;4986829;28;20138;-89
2021/12/31 14:41:13;;;;;;;1.83;0.43;;;13.00;99.90;;;;;;4987367;28;20106;-89
2021/12/31 14:43:42;;;;;;;0.80;0.30;;;13.00;99.90;;;;;;4984588;28;20065;-89
2021/12/31 14:46:08;;;;;;;1.00;0.40;;;13.00;99.90;;;;;;4974174;28;20026;-89
2021/12/31 14:48:39;;;;;;;0.88;0.52;;;13.00;99.90;;;;;;4968802;28;20069;-90
2021/12/31 14:51:05;;;;;;;1.05;0.45;;;12.90;99.90;;;;;;4973073;28;20034;-89
2021/12/31 14:53:32;;;;;;;0.98;0.30;;;12.80;99.90;;;;;;4976579;28;20049;-89
2021/12/31 14:55:58;;;;;;;1.45;0.43;;;12.60;99.90;;;;;;4976091;28;20114;-89
2021/12/31 14:58:26;;;;;;;1.70;0.52;;;12.60;99.90;;;;;;4975214;28;20438;-89
2021/12/31 15:00:52;;;;;;;2.65;0.60;;;12.40;99.90;;;;;;4973879;28;20027;-87
2021/12/31 15:03:17;;;;;;;2.28;0.50;;;12.40;99.90;;;;;;4971256;28;20523;-88
2021/12/31 15:05:51;;;;;;;2.67;0.80;;;12.30;99.90;;;;;;4990956;28;20053;-88
2021/12/31 15:08:59;;;;;;;1.58;0.50;;;12.20;99.90;;;;;;4967374;28;20031;-90
2021/12/31 15:11:30;;;;;;;1.48;0.50;;;12.10;99.90;;;;;;4963003;28;20027;-90
2021/12/31 15:13:59;;;;;;;1.25;0.40;;;11.90;99.90;;;;;;4990903;28;20105;-90
2021/12/31 15:16:40;;;;;;;1.80;0.63;;;11.90;99.90;;;;;;4993949;28;20038;-90
2021/12/31 15:19:06;;;;;;;1.48;0.70;;;11.70;99.90;;;;;;4991967;28;20026;-89
2021/12/31 15:21:34;;;;;;;1.42;0.50;;;11.70;99.90;;;;;;4989559;28;20057;-88
2021/12/31 15:24:01;;;;;;;4.25;0.70;;;11.60;99.90;;;;;;4985030;28;20019;-88
2021/12/31 15:26:27;;;;;;;1.98;0.70;;;11.50;99.90;;;;;;4990179;28;20026;-89
2021/12/31 15:28:53;;;;;;;6.20;0.80;;;11.50;99.90;;;;;;4994718;28;20045;-89
2021/12/31 15:31:20;;;;;;;1.60;0.60;;;11.50;99.90;;;;;;4977368;28;20034;-90
2021/12/31 15:33:47;;;;;;;1.52;0.60;;;11.40;99.90;;;;;;4995472;28;20023;-90
2021/12/31 15:36:33;;;;;;;3.22;1.20;;;11.30;99.90;;;;;;4973497;28;20355;-90
2021/12/31 15:39:07;;;;;;;2.55;0.90;;;11.20;99.90;;;;;;4989947;28;20117;-91
2021/12/31 15:41:42;;;;;;;2.08;0.80;;;11.20;99.90;;;;;;4995264;28;20022;-90
2021/12/31 15:44:10;;;;;;;2.30;1.00;;;11.10;99.90;;;;;;4977564;28;20026;-89
2021/12/31 15:46:39;;;;;;;1.88;0.68;;;11.10;99.90;;;;;;4975306;28;20080;-91
2021/12/31 15:49:05;;;;;;;2.15;0.80;;;11.10;99.90;;;;;;4990356;28;20025;-90